Time;durP1;ratioP1;P1;durP2;ratioP2;P2;SDS_P1;SDS_P2;PMS_P1;PMS_P2;Temp;Humidity;BMP_temperature;BMP_pressure;BME280_temperature;BME280_humidity;BME280_pressure;Samples;Min_cycle;Max_cycle;Signal;HPM_P1;HPM_P2
2023/10/10 00:00:23;;;;;;;40.40;22.40;;;;;;;3.15;100.00;101126.59;105237;1267;63909;-79
2023/10/10 00:02:51;;;;;;;35.80;19.80;;;;;;;3.11;100.00;101124.25;105198;1267;71684;-78
2023/10/10 00:05:18;;;;;;;44.50;21.30;;;;;;;3.09;100.00;101117.89;105229;1274;61127;-77
2023/10/10 00:07:46;;;;;;;40.00;21.80;;;;;;;3.08;100.00;101117.04;105293;1260;60309;-77
2023/10/10 00:10:13;;;;;;;37.80;20.80;;;;;;;3.08;100.00;101113.94;105216;1266;72936;-78
2023/10/10 00:12:40;;;;;;;44.90;23.30;;;;;;;3.08;100.00;101114.61;105187;1267;63826;-76
2023/10/10 00:15:13;;;;;;;38.20;22.20;;;;;;;3.07;100.00;101110.16;105139;1261;72671;-76
2023/10/10 00:17:41;;;;;;;39.30;22.00;;;;;;;3.07;100.00;101111.55;105413;1271;61269;-76
2023/10/10 00:20:42;;;;;;;40.40;21.20;;;;;;;3.03;100.00;101112.49;105872;1254;59557;-77
2023/10/10 00:23:05;;;;;;;40.60;20.30;;;;;;;2.98;100.00;101112.77;105904;1254;73071;-77
2023/10/10 00:25:32;;;;;;;35.70;19.90;;;;;;;2.94;100.00;101108.02;105870;1257;63902;-77
2023/10/10 00:28:04;;;;;;;35.10;19.10;;;;;;;2.88;100.00;101108.47;105858;1257;72605;-76
2023/10/10 00:30:34;;;;;;;32.00;18.50;;;;;;;2.85;100.00;101108.20;105787;1257;61064;-77
2023/10/10 00:33:04;;;;;;;38.00;21.40;;;;;;;2.82;100.00;101112.56;105884;1256;59784;-78
2023/10/10 00:35:31;;;;;;;41.10;21.00;;;;;;;2.81;100.00;101114.33;105978;1255;72739;-78
2023/10/10 00:37:58;;;;;;;40.00;21.00;;;;;;;2.79;100.00;101118.85;105943;1256;63706;-77
2023/10/10 00:40:30;;;;;;;38.20;20.80;;;;;;;2.77;100.00;101116.14;106030;1254;72599;-77
2023/10/10 00:43:04;;;;;;;42.50;21.90;;;;;;;2.74;100.00;101114.62;105946;1254;61180;-78
2023/10/10 00:45:35;;;;;;;38.60;23.20;;;;;;;2.73;100.00;101114.83;106016;1251;60304;-78
2023/10/10 00:48:03;;;;;;;43.20;21.60;;;;;;;2.72;100.00;101111.56;105941;1254;71015;-79
2023/10/10 00:50:34;;;;;;;46.30;24.90;;;;;;;2.72;100.00;101115.38;105898;1254;63763;-79
2023/10/10 00:53:03;;;;;;;38.70;22.40;;;;;;;2.70;100.00;101119.89;106025;1254;71529;-80
2023/10/10 00:55:33;;;;;;;38.80;21.20;;;;;;;2.68;100.00;101114.74;106614;1249;61177;-76
2023/10/10 00:58:02;;;;;;;37.20;23.50;;;;;;;2.66;100.00;101109.45;109327;1251;59201;-77
2023/10/10 01:00:30;;;;;;;39.70;21.40;;;;;;;2.63;100.00;101114.15;107394;1253;71804;-79
2023/10/10 01:03:19;;;;;;;37.70;22.00;;;;;;;2.60;100.00;101111.28;106072;1255;62894;-79
2023/10/10 01:05:53;;;;;;;37.50;20.20;;;;;;;2.58;100.00;101114.59;106140;1250;72581;-76
2023/10/10 01:08:23;;;;;;;37.50;21.20;;;;;;;2.56;100.00;101112.92;105929;1254;61235;-78
2023/10/10 01:10:51;;;;;;;33.30;18.70;;;;;;;2.54;100.00;101110.36;105964;1252;60084;-78
2023/10/10 01:13:18;;;;;;;37.80;21.10;;;;;;;2.52;100.00;101110.92;105931;1251;73025;-78
2023/10/10 01:15:45;;;;;;;31.50;18.30;;;;;;;2.51;100.00;101112.47;105943;1253;63056;-80
2023/10/10 01:18:15;;;;;;;33.70;17.50;;;;;;;2.51;100.00;101114.90;105955;1262;72816;-78
2023/10/10 01:20:45;;;;;;;34.60;19.50;;;;;;;2.51;100.00;101117.84;106000;1254;61077;-78
2023/10/10 01:23:18;;;;;;;31.10;18.10;;;;;;;2.50;100.00;101122.70;105998;1254;61208;-79
2023/10/10 01:25:46;;;;;;;36.20;18.30;;;;;;;2.48;100.00;101117.20;105990;1254;72831;-78
2023/10/10 01:28:15;;;;;;;36.30;19.00;;;;;;;2.46;100.00;101114.83;106046;1257;63834;-76
2023/10/10 01:33:24;;;;;;;31.80;20.90;;;;;;;2.42;100.00;101113.52;106069;1254;61051;-75
2023/10/10 01:35:55;;;;;;;29.30;17.30;;;;;;;2.40;100.00;101117.02;105999;1251;59557;-77
2023/10/10 01:38:35;;;;;;;30.80;18.80;;;;;;;2.37;100.00;101117.39;105990;1254;72884;-77
2023/10/10 01:41:13;;;;;;;36.70;22.40;;;;;;;2.35;100.00;101120.36;106030;1254;63968;-77
2023/10/10 01:43:45;;;;;;;45.70;21.20;;;;;;;2.32;100.00;101117.66;106016;1251;72760;-78
2023/10/10 01:46:28;;;;;;;38.70;20.60;;;;;;;2.31;100.00;101117.15;106031;1254;61199;-77
2023/10/10 01:49:01;;;;;;;37.70;22.20;;;;;;;2.27;100.00;101112.56;106184;1250;59675;-78
2023/10/10 01:51:35;;;;;;;35.20;19.40;;;;;;;2.25;100.00;101108.13;106175;1254;72964;-76
2023/10/10 01:54:12;;;;;;;34.50;19.80;;;;;;;2.23;100.00;101108.52;106097;1251;62465;-78
2023/10/10 01:56:45;;;;;;;35.50;21.00;;;;;;;2.22;100.00;101112.32;106066;1255;72750;-78
2023/10/10 01:59:19;;;;;;;32.20;21.00;;;;;;;2.20;100.00;101111.48;106049;1254;59653;-76
2023/10/10 02:01:47;;;;;;;40.70;21.80;;;;;;;2.18;100.00;101116.35;106040;1249;59552;-76
2023/10/10 02:04:14;;;;;;;36.30;20.40;;;;;;;2.15;100.00;101113.66;106204;1253;73046;-76
2023/10/10 02:06:45;;;;;;;45.40;22.70;;;;;;;2.13;100.00;101111.77;106126;1253;63929;-77
2023/10/10 02:09:26;;;;;;;37.50;22.20;;;;;;;2.12;100.00;101111.63;106150;1254;72684;-77
2023/10/10 02:11:54;;;;;;;35.70;21.30;;;;;;;2.10;100.00;101113.90;106119;1254;61051;-77
2023/10/10 02:14:25;;;;;;;36.10;21.80;;;;;;;2.09;100.00;101110.83;106159;1250;60258;-76
2023/10/10 02:16:54;;;;;;;36.00;19.50;;;;;;;2.07;100.00;101114.11;105958;1252;73063;-77
2023/10/10 02:19:33;;;;;;;34.50;19.30;;;;;;;2.06;100.00;101116.55;106039;1254;62941;-78
2023/10/10 02:22:12;;;;;;;38.10;20.80;;;;;;;2.05;100.00;101115.88;106123;1253;72894;-75
2023/10/10 02:24:46;;;;;;;44.20;20.30;;;;;;;2.04;100.00;101114.52;105980;1254;59706;-77
2023/10/10 02:27:22;;;;;;;35.50;20.40;;;;;;;2.03;100.00;101115.58;106159;1251;60311;-77
2023/10/10 02:29:49;;;;;;;35.50;20.10;;;;;;;2.03;100.00;101114.55;106114;1255;73045;-76
2023/10/10 02:32:19;;;;;;;36.60;20.90;;;;;;;2.02;100.00;101115.77;106171;1254;63966;-76
2023/10/10 02:34:56;;;;;;;38.10;20.40;;;;;;;2.02;100.00;101115.59;105958;1250;71453;-75
2023/10/10 02:39:56;;;;;;;37.70;18.60;;;;;;;2.01;100.00;101113.36;106048;1253;59650;-76
2023/10/10 02:42:23;;;;;;;31.60;17.50;;;;;;;2.00;100.00;101112.53;106022;1250;72951;-78
2023/10/10 02:44:57;;;;;;;37.90;18.70;;;;;;;2.00;100.00;101109.60;106006;1253;62408;-78
2023/10/10 02:47:30;;;;;;;36.40;20.60;;;;;;;2.01;100.00;101109.57;105991;1256;72718;-81
2023/10/10 02:50:09;;;;;;;32.10;19.00;;;;;;;2.02;100.00;101110.08;106018;1253;60088;-76
2023/10/10 02:52:44;;;;;;;48.90;22.40;;;;;;;2.03;100.00;101110.92;106074;1254;60888;-77
2023/10/10 02:55:22;;;;;;;38.70;20.90;;;;;;;2.03;100.00;101110.06;106186;1252;70613;-76
2023/10/10 02:57:53;;;;;;;38.40;19.20;;;;;;;2.03;100.00;101107.83;106152;1251;61459;-79
2023/10/10 03:02:53;;;;;;;35.00;18.60;;;;;;;2.01;100.00;101108.55;106089;1254;61223;-76
2023/10/10 03:05:43;;;;;;;33.20;18.40;;;;;;;2.01;100.00;101106.47;106103;1253;59684;-75
2023/10/10 03:08:26;;;;;;;30.70;17.20;;;;;;;2.01;100.00;101110.95;106088;1253;73129;-77
2023/10/10 03:11:00;;;;;;;30.80;15.80;;;;;;;2.00;100.00;101110.27;105947;1250;62485;-79
2023/10/10 03:13:30;;;;;;;30.70;17.40;;;;;;;2.00;100.00;101108.90;106061;1251;71409;-76
2023/10/10 03:21:50;;;;;;;26.80;17.30;;;;;;;1.99;100.00;101116.68;106111;1251;71676;-77
2023/10/10 03:29:21;;;;;;;29.80;17.80;;;;;;;1.94;100.00;101113.81;106075;1253;61226;-76
2023/10/10 03:31:55;;;;;;;28.30;16.50;;;;;;;1.92;100.00;101109.03;106089;1254;59623;-76
2023/10/10 03:34:43;;;;;;;;;;;;;;;1.91;100.00;101111.45;106103;1254;73817;-78
2023/10/10 03:39:55;;;;;;;38.70;15.80;;;;;;;1.87;100.00;101117.73;106261;1254;71434;-77
2023/10/10 05:25:12;;;;;;;38.20;18.60;;;;;;;3.63;100.00;101190.87;106103;1249;73803;-78
2023/10/10 05:27:43;;;;;;;32.20;17.60;;;;;;;4.00;100.00;101192.29;106330;1249;63967;-76
2023/10/10 05:33:07;;;;;;;40.70;22.10;;;;;;;4.56;100.00;101191.77;105930;1254;62364;-76
2023/10/10 05:35:38;;;;;;;41.90;21.70;;;;;;;4.84;100.00;101192.26;106090;1251;60312;-75
2023/10/10 05:38:07;;;;;;;39.50;22.80;;;;;;;5.36;100.00;101191.14;106132;1251;72611;-77
2023/10/10 05:40:34;;;;;;;35.80;19.40;;;;;;;6.04;100.00;101190.98;106035;1250;61476;-79
2023/10/10 05:43:02;;;;;;;38.00;19.90;;;;;;;6.78;100.00;101196.52;106179;1251;72607;-78
2023/10/10 05:45:32;;;;;;;39.50;20.00;;;;;;;7.58;100.00;101199.34;106091;1254;61155;-76
2023/10/10 05:47:59;;;;;;;43.50;26.70;;;;;;;8.37;100.00;101201.46;106100;1252;60443;-78
2023/10/10 05:50:27;;;;;;;34.90;19.70;;;;;;;9.20;100.00;101197.91;106064;1249;72522;-76
2023/10/10 05:52:53;;;;;;;35.40;18.10;;;;;;;10.13;100.00;101196.19;106117;1250;63887;-78
2023/10/10 05:55:20;;;;;;;33.30;19.10;;;;;;;11.07;100.00;101195.63;106082;1251;72735;-77
2023/10/10 05:57:47;;;;;;;49.50;20.70;;;;;;;11.98;95.21;101198.01;106119;1253;60632;-77
2023/10/10 06:00:14;;;;;;;38.00;20.30;;;;;;;12.83;83.71;101197.65;106079;1252;60519;-76
2023/10/10 06:02:43;;;;;;;38.40;18.90;;;;;;;13.55;71.82;101196.58;106105;1254;73914;-76
2023/10/10 06:05:10;;;;;;;34.30;19.60;;;;;;;14.19;63.58;101204.09;106104;1250;62683;-79
2023/10/10 06:07:43;;;;;;;37.10;21.00;;;;;;;14.77;59.34;101203.36;106139;1250;72825;-75
2023/10/10 06:10:16;;;;;;;38.60;20.30;;;;;;;15.18;56.13;101205.64;106050;1251;60549;-77
2023/10/10 06:12:44;;;;;;;40.50;22.10;;;;;;;15.36;53.89;101208.84;106125;1249;60603;-77
2023/10/10 06:15:12;;;;;;;40.90;20.80;;;;;;;15.56;53.61;101213.92;106180;1250;73935;-77
2023/10/10 06:17:40;;;;;;;47.60;19.70;;;;;;;15.86;52.21;101211.96;106169;1252;63915;-76
2023/10/10 06:20:08;;;;;;;39.80;20.50;;;;;;;16.25;51.07;101206.83;106199;1249;73338;-76
2023/10/10 06:22:36;;;;;;;38.50;18.40;;;;;;;16.59;49.53;101204.23;106101;1254;60905;-78
2023/10/10 06:25:05;;;;;;;34.60;16.30;;;;;;;16.90;48.22;101202.64;106151;1251;60478;-79
2023/10/10 06:27:36;;;;;;;30.40;15.10;;;;;;;17.09;45.99;101201.98;106110;1251;73850;-77
2023/10/10 06:30:08;;;;;;;23.50;13.30;;;;;;;17.07;44.18;101195.45;106165;1253;63176;-79
2023/10/10 06:32:35;;;;;;;23.80;12.20;;;;;;;16.89;43.94;101197.77;106206;1253;72601;-78
2023/10/10 06:37:51;;;;;;;18.50;11.00;;;;;;;16.21;44.35;101193.89;105913;1251;60568;-78
2023/10/10 06:40:25;;;;;;;16.90;10.90;;;;;;;15.87;45.30;101189.31;106140;1250;74128;-81
2023/10/10 06:43:00;;;;;;;15.10;8.80;;;;;;;15.56;45.75;101193.30;106142;1251;63920;-75
2023/10/10 06:45:34;;;;;;;16.60;10.40;;;;;;;15.25;45.99;101195.52;106160;1250;72732;-78
2023/10/10 06:48:02;;;;;;;17.50;9.60;;;;;;;15.01;46.86;101193.64;106101;1253;60476;-79
2023/10/10 06:50:32;;;;;;;17.20;10.10;;;;;;;14.81;47.79;101192.02;106025;1251;60548;-78
2023/10/10 06:53:00;;;;;;;24.00;10.60;;;;;;;14.64;49.50;101192.14;106130;1251;72874;-80
2023/10/10 06:55:36;;;;;;;24.00;12.70;;;;;;;14.47;50.49;101186.89;106202;1252;63833;-77
2023/10/10 06:58:05;;;;;;;24.50;13.10;;;;;;;14.36;50.23;101180.25;106214;1250;71452;-77
2023/10/10 07:00:53;;;;;;;21.70;13.10;;;;;;;14.27;50.64;101179.48;106154;1250;61168;-78
2023/10/10 07:03:30;;;;;;;23.80;14.30;;;;;;;14.21;51.09;101182.02;106029;1251;60532;-79
2023/10/10 07:05:57;;;;;;;28.00;16.70;;;;;;;14.19;50.39;101186.11;106304;1254;72760;-79
2023/10/10 07:08:27;;;;;;;24.80;14.20;;;;;;;14.28;49.42;101183.27;106150;1251;63698;-79
2023/10/10 07:10:54;;;;;;;26.40;13.70;;;;;;;14.54;49.22;101183.66;106159;1250;71436;-78
2023/10/10 07:13:29;;;;;;;19.10;11.80;;;;;;;14.76;46.46;101183.23;106239;1250;61033;-79
2023/10/10 07:15:56;;;;;;;26.50;14.80;;;;;;;14.84;45.63;101185.50;106137;1251;60454;-79
2023/10/10 07:18:23;;;;;;;21.20;12.50;;;;;;;14.88;45.87;101184.19;106005;1249;73807;-78
2023/10/10 07:21:30;;;;;;;18.80;9.60;;;;;;;15.15;45.78;101179.50;106161;1254;63873;-79
2023/10/10 07:24:12;;;;;;;14.70;8.00;;;;;;;15.69;43.74;101177.22;106211;1250;72599;-79
2023/10/10 07:26:41;;;;;;;10.70;6.70;;;;;;;16.23;42.01;101178.21;106247;1254;60527;-78
2023/10/10 07:32:15;;;;;;;13.00;8.50;;;;;;;17.35;40.05;101179.10;105943;1254;73807;-78
2023/10/10 07:34:49;;;;;;;12.80;7.20;;;;;;;17.80;39.21;101179.44;106158;1253;63710;-79
2023/10/10 07:37:18;;;;;;;13.00;7.30;;;;;;;18.06;37.80;101182.64;106134;1254;71856;-78
2023/10/10 07:42:27;;;;;;;14.50;7.40;;;;;;;18.48;36.22;101184.81;106181;1249;60399;-79
2023/10/10 07:44:58;;;;;;;13.70;6.80;;;;;;;18.79;35.72;101180.09;106211;1251;73282;-79
2023/10/10 07:47:26;;;;;;;12.50;6.40;;;;;;;19.10;35.40;101176.52;106281;1251;61889;-77
2023/10/10 07:49:59;;;;;;;7.30;5.20;;;;;;;19.51;35.09;101176.44;106098;1251;71266;-79
2023/10/10 07:52:26;;;;;;;8.20;5.70;;;;;;;19.97;34.59;101180.37;106123;1251;60559;-80
2023/10/10 07:54:53;;;;;;;7.70;4.60;;;;;;;20.48;33.73;101179.88;106129;1252;60446;-80
2023/10/10 07:57:26;;;;;;;5.80;3.70;;;;;;;20.92;32.57;101178.13;105897;1251;72666;-81
2023/10/10 07:59:58;;;;;;;7.10;3.30;;;;;;;21.32;31.90;101174.98;106131;1253;63915;-81
2023/10/10 08:02:26;;;;;;;6.10;3.40;;;;;;;21.65;31.32;101169.73;106137;1251;71511;-79
2023/10/10 08:04:54;;;;;;;4.60;3.20;;;;;;;21.65;30.69;101171.97;105926;1250;60494;-78
2023/10/10 08:07:24;;;;;;;4.00;2.50;;;;;;;21.55;30.69;101162.63;106277;1253;60440;-80
2023/10/10 08:12:46;;;;;;;5.90;2.50;;;;;;;21.16;30.80;101162.02;106195;1251;62582;-79
2023/10/10 08:15:19;;;;;;;6.30;2.40;;;;;;;21.17;30.96;101159.17;106155;1250;71943;-77
2023/10/10 08:17:58;;;;;;;5.70;2.70;;;;;;;21.36;31.00;101159.51;106119;1254;60664;-81
2023/10/10 08:23:11;;;;;;;9.50;4.20;;;;;;;20.59;30.66;101167.02;106484;1251;73011;-78
2023/10/10 08:25:38;;;;;;;7.10;3.70;;;;;;;19.98;31.45;101167.25;107060;1253;64066;-77
2023/10/10 08:28:05;;;;;;;6.40;3.50;;;;;;;19.66;32.17;101161.94;106139;1252;71832;-80
2023/10/10 08:30:32;;;;;;;2.80;1.80;;;;;;;19.66;32.38;101163.38;106324;1250;60619;-82
2023/10/10 08:32:59;;;;;;;8.00;2.80;;;;;;;19.81;31.80;101160.27;106017;1250;60511;-82
2023/10/10 08:35:29;;;;;;;5.00;2.00;;;;;;;20.14;31.63;101158.20;106178;1252;72591;-80
2023/10/10 08:37:57;;;;;;;5.20;2.60;;;;;;;20.60;31.40;101156.90;106125;1250;64006;-81
2023/10/10 08:40:24;;;;;;;3.50;2.00;;;;;;;21.06;30.84;101147.65;106230;1252;71457;-80
2023/10/10 08:42:51;;;;;;;6.60;2.20;;;;;;;21.43;30.15;101146.92;106138;1250;60539;-80
2023/10/10 08:45:25;;;;;;;6.40;2.50;;;;;;;21.70;29.47;101148.42;106231;1253;60471;-81
2023/10/10 08:47:58;;;;;;;;;;;;;;;21.92;28.69;101144.36;106236;1251;72382;-80
2023/10/10 08:50:26;;;;;;;5.70;4.00;;;;;;;22.16;28.28;101143.25;106311;1251;64021;-82
2023/10/10 08:52:54;;;;;;;7.70;4.50;;;;;;;22.08;28.27;101148.38;106018;1251;71429;-80
2023/10/10 08:55:26;;;;;;;8.30;4.50;;;;;;;21.68;28.60;101142.55;105987;1254;61585;-78
2023/10/10 08:57:55;;;;;;;7.90;4.50;;;;;;;21.46;28.94;101142.01;106203;1249;60440;-79
2023/10/10 09:00:26;;;;;;;7.70;4.10;;;;;;;21.56;29.01;101145.11;106132;1251;74873;-79
2023/10/10 09:02:56;;;;;;;8.80;4.10;;;;;;;21.85;28.32;101145.05;105983;1254;64029;-80
2023/10/10 09:05:29;;;;;;;8.90;4.10;;;;;;;21.97;27.72;101141.13;106222;1253;71435;-79
2023/10/10 09:08:06;;;;;;;4.10;3.10;;;;;;;22.17;27.57;101135.14;105990;1253;60546;-79
2023/10/10 09:10:39;;;;;;;8.40;3.50;;;;;;;22.46;27.51;101130.27;106255;1252;60351;-79
2023/10/10 09:13:09;;;;;;;7.00;3.40;;;;;;;22.77;26.92;101124.58;106110;1251;72678;-78
2023/10/10 09:15:40;;;;;;;3.70;3.40;;;;;;;22.99;26.76;101124.45;106246;1250;62829;-78
2023/10/10 09:18:17;;;;;;;5.80;2.90;;;;;;;23.25;26.69;101118.88;106080;1254;72679;-79
2023/10/10 09:20:47;;;;;;;4.70;3.00;;;;;;;23.54;26.75;101119.48;106192;1253;60546;-80
2023/10/10 09:23:24;;;;;;;4.80;3.50;;;;;;;23.82;26.52;101117.94;106054;1250;60434;-78
2023/10/10 09:26:09;;;;;;;6.70;2.60;;;;;;;23.98;25.91;101118.04;106039;1253;73896;-80
2023/10/10 09:28:48;;;;;;;5.80;2.80;;;;;;;24.14;25.20;101110.77;106173;1251;63900;-80
2023/10/10 09:31:26;;;;;;;7.70;3.00;;;;;;;24.43;24.68;101109.30;106187;1251;72612;-81
2023/10/10 09:33:56;;;;;;;2.90;1.60;;;;;;;24.69;24.32;101100.73;106257;1253;60513;-81
2023/10/10 09:36:29;;;;;;;4.20;2.20;;;;;;;24.85;23.95;101094.97;106233;1251;60562;-80
2023/10/10 09:40:25;;;;;;;3.80;2.00;;;;;;;25.08;23.51;101090.94;102498;1296;600628;-82
2023/10/10 09:45:35;;;;;;;4.90;2.90;;;;;;;25.19;22.84;101092.70;104730;1270;60170;-82
2023/10/10 09:48:17;;;;;;;7.50;3.60;;;;;;;25.33;22.79;101092.61;104696;1270;72005;-80
2023/10/10 09:51:08;;;;;;;5.80;3.50;;;;;;;25.52;22.48;101084.85;104800;1274;63582;-83
2023/10/10 09:53:34;;;;;;;5.50;4.30;;;;;;;25.65;22.17;101086.38;104353;1269;495391;-83
2023/10/10 09:56:08;;;;;;;5.30;3.80;;;;;;;25.56;22.05;101084.86;104849;1270;59524;-81
2023/10/10 09:58:42;;;;;;;6.40;3.10;;;;;;;25.51;22.12;101084.52;104950;1272;60679;-82
2023/10/10 10:01:14;;;;;;;5.30;2.60;;;;;;;25.47;21.87;101088.59;105110;1267;72923;-79
2023/10/10 10:03:55;;;;;;;2.30;1.40;;;;;;;25.44;21.15;101088.40;105316;1257;62370;-81
2023/10/10 10:09:18;;;;;;;2.70;1.70;;;;;;;25.04;21.25;101086.52;105580;1262;59910;-81
2023/10/10 10:12:30;;;;;;;4.00;2.80;;;;;;;24.51;21.57;101089.14;105671;1256;60931;-81
2023/10/10 10:15:08;;;;;;;5.30;3.80;;;;;;;23.38;22.26;101087.98;105556;1262;71918;-84
2023/10/10 10:17:53;;;;;;;6.40;3.50;;;;;;;22.64;23.39;101086.73;106138;1260;63757;-81
2023/10/10 10:20:23;;;;;;;6.70;4.10;;;;;;;22.25;23.70;101085.70;105588;1256;72571;-84
2023/10/10 10:22:54;;;;;;;4.60;2.50;;;;;;;22.03;23.74;101082.63;105773;1258;60100;-82
2023/10/10 10:25:28;;;;;;;3.60;1.60;;;;;;;22.11;23.82;101083.55;105691;1254;60290;-82
2023/10/10 10:28:00;;;;;;;2.90;2.50;;;;;;;22.38;23.64;101081.48;105610;1258;71208;-79
2023/10/10 10:32:59;;;;;;;7.40;5.80;;;;;;;22.67;23.77;101074.80;105755;1256;72454;-78
2023/10/10 10:35:56;;;;;;;3.60;3.20;;;;;;;22.82;23.58;101074.66;105581;1256;59658;-78
2023/10/10 10:38:25;;;;;;;4.60;4.00;;;;;;;23.04;23.75;101075.36;105719;1256;62036;-76
2023/10/10 10:41:07;;;;;;;4.10;3.40;;;;;;;23.23;23.61;101074.52;105469;1260;73093;-79
2023/10/10 10:43:41;;;;;;;4.00;2.10;;;;;;;23.33;23.52;101077.52;105839;1259;62780;-79
2023/10/10 10:46:15;;;;;;;2.40;1.60;;;;;;;23.33;23.52;101076.31;105564;1261;74513;-78
2023/10/10 10:48:54;;;;;;;2.60;2.10;;;;;;;22.93;23.41;101069.42;105648;1261;61350;-79
2023/10/10 10:51:22;;;;;;;1.90;1.50;;;;;;;22.28;23.85;101071.15;105835;1261;59584;-80
2023/10/10 10:53:58;;;;;;;3.00;1.70;;;;;;;21.65;23.96;101064.83;105550;1256;73267;-80
2023/10/10 10:59:13;;;;;;;3.30;1.20;;;;;;;20.69;25.57;101063.36;105402;1260;72770;-79
2023/10/10 11:01:55;;;;;;;2.50;2.00;;;;;;;20.44;25.79;101063.60;105513;1260;61072;-78
2023/10/10 11:04:45;;;;;;;2.50;1.60;;;;;;;20.09;25.85;101063.84;105589;1260;59824;-79
2023/10/10 11:07:41;;;;;;;3.10;2.40;;;;;;;19.81;27.06;101065.20;105765;1259;75410;-83
2023/10/10 11:10:10;;;;;;;5.90;1.90;;;;;;;19.54;27.09;101059.59;105787;1260;62317;-80
2023/10/10 11:12:38;;;;;;;2.60;1.90;;;;;;;19.27;27.30;101060.84;105571;1261;72825;-78
2023/10/10 11:15:10;;;;;;;3.60;2.40;;;;;;;18.93;27.86;101058.14;105615;1260;60062;-79
2023/10/10 11:17:39;;;;;;;4.10;3.00;;;;;;;18.63;28.35;101056.84;105594;1260;60387;-80
2023/10/10 11:20:29;;;;;;;3.60;2.20;;;;;;;18.38;29.01;101057.60;105706;1256;71724;-79
2023/10/10 11:23:59;;;;;;;2.90;1.70;;;;;;;18.17;29.39;101056.95;105451;1261;63487;-77
2023/10/10 11:26:03;;;;;;;2.80;2.00;;;;;;;17.88;29.56;101049.63;105451;1254;72925;-78
2023/10/10 11:28:37;;;;;;;2.50;1.50;;;;;;;17.67;29.58;101054.06;105481;1260;60040;-78
2023/10/10 11:31:08;;;;;;;4.40;0.80;;;;;;;17.45;29.56;101053.52;105507;1256;60820;-78
2023/10/10 11:33:48;;;;;;;2.50;0.90;;;;;;;17.21;29.58;101057.09;105398;1256;74095;-80
2023/10/10 11:36:20;;;;;;;2.00;1.10;;;;;;;16.89;29.87;101058.61;105674;1254;63718;-79
2023/10/10 11:38:55;;;;;;;6.90;1.60;;;;;;;16.64;30.25;101057.19;105528;1261;72477;-77
2023/10/10 11:41:30;;;;;;;1.70;0.70;;;;;;;16.40;30.40;101056.04;105858;1259;60610;-78
2023/10/10 11:44:06;;;;;;;2.00;0.70;;;;;;;16.18;30.78;101062.17;105626;1256;60395;-78
2023/10/10 11:46:34;;;;;;;5.30;1.70;;;;;;;16.00;31.45;101066.86;105481;1256;72382;-77
2023/10/10 11:49:02;;;;;;;5.30;2.70;;;;;;;15.88;31.86;101066.18;105737;1256;62522;-77
2023/10/10 11:53:54;;;;;;;4.60;3.90;;;;;;;15.67;32.60;101064.91;102610;1292;600680;-79
2023/10/10 12:00:44;;;;;;;7.00;2.00;;;;;;;15.26;32.65;101073.03;105314;1257;59332;-79
2023/10/10 12:06:02;;;;;;;2.50;1.70;;;;;;;15.04;32.87;101064.02;105310;1258;62803;-78
2023/10/10 12:08:30;;;;;;;2.10;1.30;;;;;;;14.99;32.90;101061.03;105347;1256;238603;-79
2023/10/10 12:11:12;;;;;;;4.90;2.80;;;;;;;14.99;32.77;101063.00;105562;1256;59673;-77
2023/10/10 12:13:41;;;;;;;4.00;2.50;;;;;;;14.92;33.09;101060.27;106328;1257;59248;-79
2023/10/10 12:16:11;;;;;;;2.30;1.60;;;;;;;14.81;32.92;101061.61;106185;1256;74914;-78
2023/10/10 12:18:49;;;;;;;1.10;1.00;;;;;;;14.72;32.77;101065.22;105497;1255;62402;-77
2023/10/10 12:21:21;;;;;;;3.00;1.10;;;;;;;14.59;33.04;101062.83;105400;1256;75553;-76
2023/10/10 12:23:52;;;;;;;1.80;1.40;;;;;;;14.47;32.99;101059.70;105402;1257;59638;-78
2023/10/10 12:26:24;;;;;;;2.20;0.90;;;;;;;14.40;33.58;101061.95;105412;1260;60105;-77
2023/10/10 12:28:52;;;;;;;4.70;1.10;;;;;;;14.34;33.75;101062.73;105350;1262;73304;-78
2023/10/10 12:31:21;;;;;;;3.90;1.10;;;;;;;14.23;33.51;101064.02;105357;1260;66021;-79
2023/10/10 12:33:53;;;;;;;2.40;1.80;;;;;;;14.05;33.80;101064.17;105595;1256;73064;-77
2023/10/10 12:36:28;;;;;;;5.00;2.20;;;;;;;13.91;34.00;101061.92;105484;1260;62660;-79
2023/10/10 12:39:04;;;;;;;4.30;3.30;;;;;;;13.77;34.71;101057.77;105407;1256;63043;-76
2023/10/10 12:41:45;;;;;;;4.70;2.80;;;;;;;13.64;35.29;101061.45;105240;1256;73065;-79
2023/10/10 12:44:14;;;;;;;5.20;3.50;;;;;;;13.52;35.62;101057.66;105502;1255;67462;-76
2023/10/10 12:46:42;;;;;;;7.80;5.50;;;;;;;13.44;35.99;101057.29;105660;1257;72445;-78
2023/10/10 12:49:11;;;;;;;3.90;2.30;;;;;;;13.38;36.86;101058.72;105388;1260;59669;-78
2023/10/10 12:51:44;;;;;;;2.50;1.60;;;;;;;13.34;36.58;101065.31;105510;1259;62719;-80
2023/10/10 12:54:13;;;;;;;4.10;1.80;;;;;;;13.27;36.92;101069.23;105464;1256;75274;-78
2023/10/10 12:56:58;;;;;;;4.80;1.70;;;;;;;13.23;37.32;101065.12;105392;1258;64453;-79
2023/10/10 12:59:28;;;;;;;;;;;;;;;13.15;37.06;101058.95;105468;1256;73202;-77
2023/10/10 13:02:03;;;;;;;5.10;3.10;;;;;;;13.11;37.43;101059.77;105436;1256;59821;-79
2023/10/10 13:04:36;;;;;;;4.60;2.80;;;;;;;13.09;37.90;101054.09;105379;1260;61268;-80
2023/10/10 13:07:06;;;;;;;4.40;2.30;;;;;;;13.08;37.62;101054.15;105660;1257;73123;-78
2023/10/10 13:09:42;;;;;;;3.60;1.80;;;;;;;13.08;37.57;101055.06;105529;1255;62571;-77
2023/10/10 13:12:18;;;;;;;3.10;2.20;;;;;;;13.06;38.37;101057.58;105780;1256;72675;-77
2023/10/10 13:14:50;;;;;;;3.40;1.80;;;;;;;13.03;38.26;101058.34;106299;1258;59783;-78
2023/10/10 13:17:30;;;;;;;2.40;1.30;;;;;;;12.96;37.56;101059.31;105567;1260;61087;-80
2023/10/10 13:19:58;;;;;;;4.80;1.30;;;;;;;12.86;37.49;101059.89;105431;1256;71758;-78
2023/10/10 13:22:29;;;;;;;8.80;4.50;;;;;;;12.82;38.21;101062.09;105325;1257;62492;-79
2023/10/10 13:24:57;;;;;;;5.40;2.60;;;;;;;12.77;38.42;101064.15;105375;1260;70745;-78
2023/10/10 13:27:25;;;;;;;2.00;1.70;;;;;;;12.72;38.52;101062.89;105511;1261;60066;-79
2023/10/10 13:29:53;;;;;;;2.40;1.40;;;;;;;12.71;38.45;101064.40;105407;1260;62154;-80
2023/10/10 13:32:20;;;;;;;2.00;1.80;;;;;;;12.67;38.74;101071.27;105284;1256;71922;-79
2023/10/10 13:34:48;;;;;;;2.40;1.20;;;;;;;12.62;38.83;101071.89;105616;1260;63572;-76
2023/10/10 13:37:16;;;;;;;2.80;1.20;;;;;;;12.58;38.77;101069.17;105482;1256;74884;-77
2023/10/10 13:39:43;;;;;;;2.30;1.20;;;;;;;12.56;38.77;101074.06;105374;1256;60316;-78
2023/10/10 13:42:14;;;;;;;3.70;1.30;;;;;;;12.54;39.45;101074.65;105411;1260;59661;-77
2023/10/10 13:44:42;;;;;;;5.90;2.30;;;;;;;12.54;39.78;101079.27;105393;1256;73918;-78
2023/10/10 13:47:10;;;;;;;4.90;3.90;;;;;;;12.51;39.77;101081.20;105431;1257;62408;-79
2023/10/10 13:49:44;;;;;;;6.80;2.70;;;;;;;12.45;40.10;101083.11;105405;1260;72650;-77
2023/10/10 13:52:16;;;;;;;2.20;1.90;;;;;;;12.38;40.61;101083.89;105403;1260;61399;-79
2023/10/10 13:54:43;;;;;;;3.80;2.00;;;;;;;12.32;41.03;101089.02;105518;1256;59652;-77
2023/10/10 13:57:11;;;;;;;2.40;1.80;;;;;;;12.24;41.46;101089.11;105477;1256;72820;-76
2023/10/10 13:59:38;;;;;;;5.30;1.80;;;;;;;12.16;42.11;101095.91;105329;1256;67853;-76
2023/10/10 14:02:10;;;;;;;2.60;2.00;;;;;;;12.07;42.14;101099.41;105492;1256;72075;-76
2023/10/10 14:04:48;;;;;;;1.80;1.70;;;;;;;12.02;42.51;101108.27;105531;1256;59718;-76
2023/10/10 14:07:17;;;;;;;2.00;1.70;;;;;;;11.95;42.04;101108.71;105492;1256;60848;-79
2023/10/10 14:09:49;;;;;;;2.20;1.60;;;;;;;11.84;42.02;101109.98;105458;1256;75108;-76
2023/10/10 14:12:22;;;;;;;;;;;;;;;11.75;42.02;101111.88;105344;1256;67334;-77
2023/10/10 14:14:51;;;;;;;6.30;1.50;;;;;;;11.66;41.80;101113.84;105428;1256;75230;-77
2023/10/10 14:17:19;;;;;;;4.90;1.80;;;;;;;11.59;42.41;101114.92;105622;1256;61825;-78